sensor_id;sensor_type;location;lat;lon;timestamp;P1;durP1;ratioP1;P2;durP2;ratioP2
62673;SDS011;62269;47.594;17.638;2023-12-07T00:00:23;50.40;;;33.22;;
62673;SDS011;62269;47.594;17.638;2023-12-07T00:01:21;50.03;;;31.90;;
62673;SDS011;62269;47.594;17.638;2023-12-07T00:02:18;48.15;;;31.77;;
62673;SDS011;62269;47.594;17.638;2023-12-07T00:03:16;47.72;;;31.08;;
62673;SDS011;62269;47.594;17.638;2023-12-07T00:04:13;48.80;;;31.08;;
62673;SDS011;62269;47.594;17.638;2023-12-07T00:05:10;52.30;;;32.92;;
62673;SDS011;62269;47.594;17.638;2023-12-07T00:06:08;48.17;;;31.70;;
62673;SDS011;62269;47.594;17.638;2023-12-07T00:07:05;48.40;;;29.25;;
62673;SDS011;62269;47.594;17.638;2023-12-07T00:08:03;52.92;;;32.30;;
62673;SDS011;62269;47.594;17.638;2023-12-07T00:09:00;50.92;;;31.60;;
62673;SDS011;62269;47.594;17.638;2023-12-07T00:09:58;49.88;;;32.17;;
62673;SDS011;62269;47.594;17.638;2023-12-07T00:10:55;47.42;;;31.50;;
62673;SDS011;62269;47.594;17.638;2023-12-07T00:11:52;45.95;;;31.73;;
62673;SDS011;62269;47.594;17.638;2023-12-07T00:12:51;50.80;;;32.35;;
62673;SDS011;62269;47.594;17.638;2023-12-07T00:13:48;48.08;;;31.25;;
62673;SDS011;62269;47.594;17.638;2023-12-07T00:14:45;49.90;;;33.13;;
62673;SDS011;62269;47.594;17.638;2023-12-07T00:15:43;49.47;;;31.62;;
62673;SDS011;62269;47.594;17.638;2023-12-07T00:16:40;50.12;;;32.50;;
62673;SDS011;62269;47.594;17.638;2023-12-07T00:17:37;51.30;;;30.52;;
62673;SDS011;62269;47.594;17.638;2023-12-07T00:18:34;48.63;;;30.55;;
62673;SDS011;62269;47.594;17.638;2023-12-07T00:19:32;45.50;;;30.45;;
62673;SDS011;62269;47.594;17.638;2023-12-07T00:20:30;48.30;;;30.05;;
62673;SDS011;62269;47.594;17.638;2023-12-07T00:21:27;48.97;;;32.53;;
62673;SDS011;62269;47.594;17.638;2023-12-07T00:22:25;49.83;;;32.33;;
62673;SDS011;62269;47.594;17.638;2023-12-07T00:23:24;48.20;;;31.25;;
62673;SDS011;62269;47.594;17.638;2023-12-07T00:24:21;52.83;;;32.75;;
62673;SDS011;62269;47.594;17.638;2023-12-07T00:25:18;50.15;;;32.20;;
62673;SDS011;62269;47.594;17.638;2023-12-07T00:26:16;47.22;;;30.55;;
62673;SDS011;62269;47.594;17.638;2023-12-07T00:27:13;49.55;;;30.85;;
62673;SDS011;62269;47.594;17.638;2023-12-07T00:28:10;47.08;;;31.42;;
62673;SDS011;62269;47.594;17.638;2023-12-07T00:29:08;50.22;;;32.97;;
62673;SDS011;62269;47.594;17.638;2023-12-07T00:30:05;47.90;;;31.30;;
62673;SDS011;62269;47.594;17.638;2023-12-07T00:31:03;50.10;;;32.42;;
62673;SDS011;62269;47.594;17.638;2023-12-07T00:32:00;49.38;;;30.70;;
62673;SDS011;62269;47.594;17.638;2023-12-07T00:32:58;45.90;;;29.63;;
62673;SDS011;62269;47.594;17.638;2023-12-07T00:33:55;47.47;;;31.25;;
62673;SDS011;62269;47.594;17.638;2023-12-07T00:34:53;50.15;;;31.92;;
62673;SDS011;62269;47.594;17.638;2023-12-07T00:35:51;45.25;;;30.30;;
62673;SDS011;62269;47.594;17.638;2023-12-07T00:36:48;49.63;;;30.00;;
62673;SDS011;62269;47.594;17.638;2023-12-07T00:37:45;49.08;;;31.87;;
62673;SDS011;62269;47.594;17.638;2023-12-07T00:38:43;49.42;;;32.03;;
62673;SDS011;62269;47.594;17.638;2023-12-07T00:39:41;47.75;;;30.85;;
62673;SDS011;62269;47.594;17.638;2023-12-07T00:40:39;49.83;;;31.33;;
62673;SDS011;62269;47.594;17.638;2023-12-07T00:41:36;46.15;;;30.67;;
62673;SDS011;62269;47.594;17.638;2023-12-07T00:42:34;49.33;;;32.15;;
62673;SDS011;62269;47.594;17.638;2023-12-07T00:43:32;44.08;;;30.52;;
62673;SDS011;62269;47.594;17.638;2023-12-07T00:44:30;47.75;;;30.98;;
62673;SDS011;62269;47.594;17.638;2023-12-07T00:45:27;52.90;;;31.52;;
62673;SDS011;62269;47.594;17.638;2023-12-07T00:46:24;45.17;;;30.85;;
62673;SDS011;62269;47.594;17.638;2023-12-07T00:47:22;46.45;;;29.37;;
62673;SDS011;62269;47.594;17.638;2023-12-07T00:48:19;48.58;;;31.50;;
62673;SDS011;62269;47.594;17.638;2023-12-07T00:49:17;46.67;;;30.92;;
62673;SDS011;62269;47.594;17.638;2023-12-07T00:50:15;46.17;;;30.35;;
62673;SDS011;62269;47.594;17.638;2023-12-07T00:51:13;56.40;;;34.20;;
62673;SDS011;62269;47.594;17.638;2023-12-07T00:52:12;52.80;;;33.20;;
62673;SDS011;62269;47.594;17.638;2023-12-07T00:53:10;52.13;;;30.95;;
62673;SDS011;62269;47.594;17.638;2023-12-07T00:54:07;52.17;;;32.08;;
62673;SDS011;62269;47.594;17.638;2023-12-07T00:55:05;50.65;;;30.98;;
62673;SDS011;62269;47.594;17.638;2023-12-07T00:56:08;50.33;;;31.27;;
62673;SDS011;62269;47.594;17.638;2023-12-07T00:57:06;53.28;;;31.50;;
62673;SDS011;62269;47.594;17.638;2023-12-07T00:58:03;56.28;;;34.08;;
62673;SDS011;62269;47.594;17.638;2023-12-07T00:59:01;47.90;;;31.52;;
62673;SDS011;62269;47.594;17.638;2023-12-07T00:59:58;54.40;;;33.15;;
62673;SDS011;62269;47.594;17.638;2023-12-07T01:00:55;49.20;;;29.98;;
62673;SDS011;62269;47.594;17.638;2023-12-07T01:01:53;52.13;;;33.55;;
62673;SDS011;62269;47.594;17.638;2023-12-07T01:02:50;51.72;;;34.63;;
62673;SDS011;62269;47.594;17.638;2023-12-07T01:03:48;53.47;;;32.60;;
62673;SDS011;62269;47.594;17.638;2023-12-07T01:04:45;52.38;;;31.73;;
62673;SDS011;62269;47.594;17.638;2023-12-07T01:05:43;50.70;;;31.77;;
62673;SDS011;62269;47.594;17.638;2023-12-07T01:06:40;57.25;;;33.70;;
62673;SDS011;62269;47.594;17.638;2023-12-07T01:07:38;50.88;;;31.58;;
62673;SDS011;62269;47.594;17.638;2023-12-07T01:08:35;49.33;;;30.75;;
62673;SDS011;62269;47.594;17.638;2023-12-07T01:09:33;55.83;;;33.97;;
62673;SDS011;62269;47.594;17.638;2023-12-07T01:10:30;55.15;;;32.72;;
62673;SDS011;62269;47.594;17.638;2023-12-07T01:11:29;60.60;;;34.15;;
62673;SDS011;62269;47.594;17.638;2023-12-07T01:12:26;52.40;;;31.67;;
62673;SDS011;62269;47.594;17.638;2023-12-07T01:13:24;52.03;;;31.52;;
62673;SDS011;62269;47.594;17.638;2023-12-07T01:14:21;47.45;;;30.85;;
62673;SDS011;62269;47.594;17.638;2023-12-07T01:15:18;52.75;;;33.05;;
62673;SDS011;62269;47.594;17.638;2023-12-07T01:16:15;50.03;;;32.15;;
62673;SDS011;62269;47.594;17.638;2023-12-07T01:17:13;54.35;;;33.75;;
62673;SDS011;62269;47.594;17.638;2023-12-07T01:18:10;54.05;;;33.78;;
62673;SDS011;62269;47.594;17.638;2023-12-07T01:19:08;52.53;;;32.10;;
62673;SDS011;62269;47.594;17.638;2023-12-07T01:20:06;53.40;;;31.98;;
62673;SDS011;62269;47.594;17.638;2023-12-07T01:21:13;53.63;;;31.95;;
62673;SDS011;62269;47.594;17.638;2023-12-07T01:22:11;53.20;;;31.77;;
62673;SDS011;62269;47.594;17.638;2023-12-07T01:23:09;55.12;;;33.33;;
62673;SDS011;62269;47.594;17.638;2023-12-07T01:24:09;54.10;;;33.88;;
62673;SDS011;62269;47.594;17.638;2023-12-07T01:25:11;51.60;;;33.47;;
62673;SDS011;62269;47.594;17.638;2023-12-07T01:26:10;53.22;;;33.40;;
62673;SDS011;62269;47.594;17.638;2023-12-07T01:27:08;49.50;;;31.17;;
62673;SDS011;62269;47.594;17.638;2023-12-07T01:28:05;57.08;;;33.92;;
62673;SDS011;62269;47.594;17.638;2023-12-07T01:29:02;50.10;;;31.50;;
62673;SDS011;62269;47.594;17.638;2023-12-07T01:30:00;48.30;;;32.38;;
62673;SDS011;62269;47.594;17.638;2023-12-07T01:30:58;49.72;;;33.25;;
62673;SDS011;62269;47.594;17.638;2023-12-07T01:31:55;53.95;;;31.73;;
62673;SDS011;62269;47.594;17.638;2023-12-07T01:32:52;50.30;;;30.98;;
62673;SDS011;62269;47.594;17.638;2023-12-07T01:33:50;48.30;;;32.08;;
62673;SDS011;62269;47.594;17.638;2023-12-07T01:34:47;53.22;;;32.78;;
62673;SDS011;62269;47.594;17.638;2023-12-07T01:35:45;55.40;;;34.63;;
62673;SDS011;62269;47.594;17.638;2023-12-07T01:36:42;49.80;;;31.85;;
62673;SDS011;62269;47.594;17.638;2023-12-07T01:37:41;56.63;;;33.60;;
62673;SDS011;62269;47.594;17.638;2023-12-07T01:38:38;55.40;;;33.55;;
62673;SDS011;62269;47.594;17.638;2023-12-07T01:39:36;54.22;;;32.42;;
62673;SDS011;62269;47.594;17.638;2023-12-07T01:40:33;49.88;;;32.03;;
62673;SDS011;62269;47.594;17.638;2023-12-07T01:41:31;52.83;;;32.00;;
62673;SDS011;62269;47.594;17.638;2023-12-07T01:42:28;52.88;;;33.42;;
62673;SDS011;62269;47.594;17.638;2023-12-07T01:43:26;51.80;;;31.17;;
62673;SDS011;62269;47.594;17.638;2023-12-07T01:44:23;48.97;;;31.75;;
62673;SDS011;62269;47.594;17.638;2023-12-07T01:45:20;54.45;;;30.73;;
62673;SDS011;62269;47.594;17.638;2023-12-07T01:46:18;51.45;;;31.60;;
62673;SDS011;62269;47.594;17.638;2023-12-07T01:47:15;55.28;;;33.67;;
62673;SDS011;62269;47.594;17.638;2023-12-07T01:48:13;53.13;;;31.58;;
62673;SDS011;62269;47.594;17.638;2023-12-07T01:49:10;49.80;;;33.50;;
62673;SDS011;62269;47.594;17.638;2023-12-07T01:50:08;58.40;;;33.20;;
62673;SDS011;62269;47.594;17.638;2023-12-07T01:51:06;52.92;;;32.78;;
62673;SDS011;62269;47.594;17.638;2023-12-07T01:52:04;55.25;;;33.42;;
62673;SDS011;62269;47.594;17.638;2023-12-07T01:53:02;53.53;;;33.67;;
62673;SDS011;62269;47.594;17.638;2023-12-07T01:54:04;45.60;;;29.37;;
62673;SDS011;62269;47.594;17.638;2023-12-07T01:55:02;53.10;;;32.67;;
62673;SDS011;62269;47.594;17.638;2023-12-07T01:56:00;54.28;;;31.77;;
62673;SDS011;62269;47.594;17.638;2023-12-07T01:56:58;48.85;;;32.55;;
62673;SDS011;62269;47.594;17.638;2023-12-07T01:57:56;57.33;;;34.75;;
62673;SDS011;62269;47.594;17.638;2023-12-07T01:58:53;51.17;;;31.92;;
62673;SDS011;62269;47.594;17.638;2023-12-07T01:59:51;54.75;;;31.42;;
62673;SDS011;62269;47.594;17.638;2023-12-07T02:00:48;56.80;;;34.28;;
62673;SDS011;62269;47.594;17.638;2023-12-07T02:01:46;52.50;;;32.38;;
62673;SDS011;62269;47.594;17.638;2023-12-07T02:02:44;50.28;;;31.17;;
62673;SDS011;62269;47.594;17.638;2023-12-07T02:03:42;53.72;;;34.30;;
62673;SDS011;62269;47.594;17.638;2023-12-07T02:04:40;58.72;;;33.97;;
62673;SDS011;62269;47.594;17.638;2023-12-07T02:05:37;55.00;;;33.33;;
62673;SDS011;62269;47.594;17.638;2023-12-07T02:06:40;51.47;;;31.70;;
62673;SDS011;62269;47.594;17.638;2023-12-07T02:07:37;51.65;;;32.20;;
62673;SDS011;62269;47.594;17.638;2023-12-07T02:08:35;51.72;;;31.42;;
62673;SDS011;62269;47.594;17.638;2023-12-07T02:09:38;54.92;;;34.45;;
62673;SDS011;62269;47.594;17.638;2023-12-07T02:10:35;51.92;;;31.35;;
62673;SDS011;62269;47.594;17.638;2023-12-07T02:11:33;58.17;;;33.72;;
62673;SDS011;62269;47.594;17.638;2023-12-07T02:12:30;51.47;;;32.25;;
62673;SDS011;62269;47.594;17.638;2023-12-07T02:13:28;52.28;;;30.95;;
62673;SDS011;62269;47.594;17.638;2023-12-07T02:14:30;53.67;;;31.50;;
62673;SDS011;62269;47.594;17.638;2023-12-07T02:15:28;50.63;;;32.28;;
62673;SDS011;62269;47.594;17.638;2023-12-07T02:16:35;51.92;;;32.80;;
62673;SDS011;62269;47.594;17.638;2023-12-07T02:19:20;49.92;;;30.10;;
62673;SDS011;62269;47.594;17.638;2023-12-07T02:20:30;50.53;;;31.12;;
62673;SDS011;62269;47.594;17.638;2023-12-07T02:21:37;47.97;;;30.85;;
62673;SDS011;62269;47.594;17.638;2023-12-07T02:22:39;57.67;;;32.08;;
62673;SDS011;62269;47.594;17.638;2023-12-07T02:23:40;54.80;;;33.33;;
62673;SDS011;62269;47.594;17.638;2023-12-07T02:24:48;49.03;;;30.95;;
62673;SDS011;62269;47.594;17.638;2023-12-07T02:26:11;52.20;;;32.55;;
62673;SDS011;62269;47.594;17.638;2023-12-07T02:27:08;58.58;;;32.50;;
62673;SDS011;62269;47.594;17.638;2023-12-07T02:28:05;52.38;;;31.77;;
62673;SDS011;62269;47.594;17.638;2023-12-07T02:29:03;52.88;;;31.90;;
62673;SDS011;62269;47.594;17.638;2023-12-07T02:30:01;54.90;;;33.65;;
62673;SDS011;62269;47.594;17.638;2023-12-07T02:30:58;53.03;;;32.13;;
62673;SDS011;62269;47.594;17.638;2023-12-07T02:31:56;55.45;;;33.47;;
62673;SDS011;62269;47.594;17.638;2023-12-07T02:32:53;54.30;;;32.88;;
62673;SDS011;62269;47.594;17.638;2023-12-07T02:33:51;57.08;;;33.80;;
62673;SDS011;62269;47.594;17.638;2023-12-07T02:34:49;55.03;;;33.55;;
62673;SDS011;62269;47.594;17.638;2023-12-07T02:35:46;55.97;;;35.17;;
62673;SDS011;62269;47.594;17.638;2023-12-07T02:36:44;51.97;;;34.38;;
62673;SDS011;62269;47.594;17.638;2023-12-07T02:37:43;52.15;;;31.92;;
62673;SDS011;62269;47.594;17.638;2023-12-07T02:38:42;52.30;;;33.50;;
62673;SDS011;62269;47.594;17.638;2023-12-07T02:39:41;54.80;;;32.58;;
62673;SDS011;62269;47.594;17.638;2023-12-07T02:40:38;53.55;;;33.50;;
62673;SDS011;62269;47.594;17.638;2023-12-07T02:41:37;54.65;;;33.65;;
62673;SDS011;62269;47.594;17.638;2023-12-07T02:42:35;55.95;;;34.10;;
62673;SDS011;62269;47.594;17.638;2023-12-07T02:43:33;51.53;;;33.22;;
62673;SDS011;62269;47.594;17.638;2023-12-07T02:44:30;53.40;;;32.58;;
62673;SDS011;62269;47.594;17.638;2023-12-07T02:45:28;53.70;;;35.17;;
62673;SDS011;62269;47.594;17.638;2023-12-07T02:46:26;57.65;;;33.67;;
62673;SDS011;62269;47.594;17.638;2023-12-07T02:47:23;52.53;;;32.17;;
62673;SDS011;62269;47.594;17.638;2023-12-07T02:48:21;51.92;;;34.20;;
62673;SDS011;62269;47.594;17.638;2023-12-07T02:49:18;50.75;;;32.08;;
62673;SDS011;62269;47.594;17.638;2023-12-07T02:50:16;52.05;;;32.20;;
62673;SDS011;62269;47.594;17.638;2023-12-07T02:51:14;53.63;;;32.65;;
62673;SDS011;62269;47.594;17.638;2023-12-07T02:52:11;51.80;;;32.20;;
62673;SDS011;62269;47.594;17.638;2023-12-07T02:53:09;51.72;;;33.83;;
62673;SDS011;62269;47.594;17.638;2023-12-07T02:54:06;52.53;;;32.38;;
62673;SDS011;62269;47.594;17.638;2023-12-07T02:55:04;53.67;;;31.55;;
62673;SDS011;62269;47.594;17.638;2023-12-07T02:56:02;50.38;;;33.45;;
62673;SDS011;62269;47.594;17.638;2023-12-07T02:57:00;52.75;;;30.95;;
62673;SDS011;62269;47.594;17.638;2023-12-07T02:57:57;53.50;;;33.03;;
62673;SDS011;62269;47.594;17.638;2023-12-07T02:58:55;51.30;;;30.45;;
62673;SDS011;62269;47.594;17.638;2023-12-07T02:59:52;50.05;;;32.38;;
62673;SDS011;62269;47.594;17.638;2023-12-07T03:00:50;51.30;;;31.37;;
62673;SDS011;62269;47.594;17.638;2023-12-07T03:01:47;51.90;;;31.67;;
62673;SDS011;62269;47.594;17.638;2023-12-07T03:02:45;47.35;;;32.05;;
62673;SDS011;62269;47.594;17.638;2023-12-07T03:03:44;50.58;;;30.60;;
62673;SDS011;62269;47.594;17.638;2023-12-07T03:04:42;54.05;;;34.17;;
62673;SDS011;62269;47.594;17.638;2023-12-07T03:05:39;52.10;;;32.28;;
62673;SDS011;62269;47.594;17.638;2023-12-07T03:06:37;45.80;;;29.85;;
62673;SDS011;62269;47.594;17.638;2023-12-07T03:07:34;51.72;;;31.02;;
62673;SDS011;62269;47.594;17.638;2023-12-07T03:08:32;53.87;;;33.22;;
62673;SDS011;62269;47.594;17.638;2023-12-07T03:09:29;48.25;;;30.15;;
62673;SDS011;62269;47.594;17.638;2023-12-07T03:10:26;53.80;;;31.50;;
62673;SDS011;62269;47.594;17.638;2023-12-07T03:11:26;50.45;;;31.95;;
62673;SDS011;62269;47.594;17.638;2023-12-07T03:12:23;56.70;;;32.13;;
62673;SDS011;62269;47.594;17.638;2023-12-07T03:13:22;48.08;;;31.62;;
62673;SDS011;62269;47.594;17.638;2023-12-07T03:14:21;48.63;;;29.50;;
62673;SDS011;62269;47.594;17.638;2023-12-07T03:15:19;44.85;;;29.27;;
62673;SDS011;62269;47.594;17.638;2023-12-07T03:16:16;45.85;;;31.02;;
62673;SDS011;62269;47.594;17.638;2023-12-07T03:17:13;48.25;;;29.63;;
62673;SDS011;62269;47.594;17.638;2023-12-07T03:18:11;48.47;;;30.40;;
62673;SDS011;62269;47.594;17.638;2023-12-07T03:19:08;46.22;;;29.83;;
62673;SDS011;62269;47.594;17.638;2023-12-07T03:20:06;46.70;;;29.37;;
62673;SDS011;62269;47.594;17.638;2023-12-07T03:21:05;48.13;;;28.55;;
62673;SDS011;62269;47.594;17.638;2023-12-07T03:22:03;38.53;;;25.35;;
62673;SDS011;62269;47.594;17.638;2023-12-07T03:23:00;43.83;;;28.20;;
62673;SDS011;62269;47.594;17.638;2023-12-07T03:23:58;44.28;;;28.17;;
62673;SDS011;62269;47.594;17.638;2023-12-07T03:24:56;45.05;;;29.02;;
62673;SDS011;62269;47.594;17.638;2023-12-07T03:25:53;44.95;;;28.95;;
62673;SDS011;62269;47.594;17.638;2023-12-07T03:26:50;43.92;;;30.23;;
62673;SDS011;62269;47.594;17.638;2023-12-07T03:27:48;41.78;;;28.42;;
62673;SDS011;62269;47.594;17.638;2023-12-07T03:28:46;45.67;;;29.17;;
62673;SDS011;62269;47.594;17.638;2023-12-07T03:29:43;43.75;;;28.30;;
62673;SDS011;62269;47.594;17.638;2023-12-07T03:30:40;40.95;;;27.52;;
62673;SDS011;62269;47.594;17.638;2023-12-07T03:31:38;45.97;;;29.73;;
62673;SDS011;62269;47.594;17.638;2023-12-07T03:32:36;44.03;;;27.15;;
62673;SDS011;62269;47.594;17.638;2023-12-07T03:33:34;46.40;;;29.48;;
62673;SDS011;62269;47.594;17.638;2023-12-07T03:34:31;43.13;;;28.38;;
62673;SDS011;62269;47.594;17.638;2023-12-07T03:35:28;44.10;;;29.77;;
62673;SDS011;62269;47.594;17.638;2023-12-07T03:36:26;43.45;;;28.38;;
62673;SDS011;62269;47.594;17.638;2023-12-07T03:37:26;38.80;;;27.20;;
62673;SDS011;62269;47.594;17.638;2023-12-07T03:38:24;42.20;;;28.87;;
62673;SDS011;62269;47.594;17.638;2023-12-07T03:39:21;46.08;;;28.70;;
62673;SDS011;62269;47.594;17.638;2023-12-07T03:40:19;43.85;;;29.10;;
62673;SDS011;62269;47.594;17.638;2023-12-07T03:41:17;41.13;;;28.48;;
62673;SDS011;62269;47.594;17.638;2023-12-07T03:42:15;44.42;;;28.35;;
62673;SDS011;62269;47.594;17.638;2023-12-07T03:43:32;39.67;;;26.12;;
62673;SDS011;62269;47.594;17.638;2023-12-07T03:44:30;43.28;;;28.52;;
62673;SDS011;62269;47.594;17.638;2023-12-07T03:45:27;43.08;;;28.30;;
62673;SDS011;62269;47.594;17.638;2023-12-07T03:46:25;41.22;;;26.80;;
62673;SDS011;62269;47.594;17.638;2023-12-07T03:47:22;39.35;;;26.98;;
62673;SDS011;62269;47.594;17.638;2023-12-07T03:48:21;43.03;;;28.33;;
62673;SDS011;62269;47.594;17.638;2023-12-07T03:49:19;41.08;;;28.15;;
62673;SDS011;62269;47.594;17.638;2023-12-07T03:50:17;44.05;;;28.70;;
62673;SDS011;62269;47.594;17.638;2023-12-07T03:51:16;41.28;;;26.52;;
62673;SDS011;62269;47.594;17.638;2023-12-07T03:52:14;40.65;;;27.83;;
62673;SDS011;62269;47.594;17.638;2023-12-07T03:53:11;43.03;;;27.98;;
62673;SDS011;62269;47.594;17.638;2023-12-07T03:54:09;34.63;;;23.90;;
62673;SDS011;62269;47.594;17.638;2023-12-07T03:55:07;32.45;;;22.42;;
62673;SDS011;62269;47.594;17.638;2023-12-07T03:56:05;41.20;;;28.08;;
62673;SDS011;62269;47.594;17.638;2023-12-07T03:57:03;41.15;;;27.33;;
62673;SDS011;62269;47.594;17.638;2023-12-07T03:58:01;45.78;;;28.60;;
62673;SDS011;62269;47.594;17.638;2023-12-07T03:59:00;44.28;;;29.30;;
62673;SDS011;62269;47.594;17.638;2023-12-07T03:59:58;45.72;;;30.67;;
62673;SDS011;62269;47.594;17.638;2023-12-07T04:00:56;43.92;;;29.92;;
62673;SDS011;62269;47.594;17.638;2023-12-07T04:01:54;45.40;;;30.10;;
62673;SDS011;62269;47.594;17.638;2023-12-07T04:02:52;40.17;;;29.30;;
62673;SDS011;62269;47.594;17.638;2023-12-07T04:03:52;40.03;;;27.83;;
62673;SDS011;62269;47.594;17.638;2023-12-07T04:04:51;38.35;;;25.33;;
62673;SDS011;62269;47.594;17.638;2023-12-07T04:05:49;41.25;;;28.52;;
62673;SDS011;62269;47.594;17.638;2023-12-07T04:06:47;41.08;;;26.55;;
62673;SDS011;62269;47.594;17.638;2023-12-07T04:07:48;37.65;;;27.23;;
62673;SDS011;62269;47.594;17.638;2023-12-07T04:08:46;41.35;;;26.50;;
62673;SDS011;62269;47.594;17.638;2023-12-07T04:09:44;42.38;;;26.87;;
62673;SDS011;62269;47.594;17.638;2023-12-07T04:10:41;38.70;;;25.95;;
62673;SDS011;62269;47.594;17.638;2023-12-07T04:11:39;36.65;;;25.62;;
62673;SDS011;62269;47.594;17.638;2023-12-07T04:12:39;38.08;;;26.60;;
62673;SDS011;62269;47.594;17.638;2023-12-07T04:13:37;40.05;;;25.80;;
62673;SDS011;62269;47.594;17.638;2023-12-07T04:14:35;35.88;;;24.48;;
62673;SDS011;62269;47.594;17.638;2023-12-07T04:15:33;39.33;;;26.55;;
62673;SDS011;62269;47.594;17.638;2023-12-07T04:16:31;41.37;;;27.15;;
62673;SDS011;62269;47.594;17.638;2023-12-07T04:17:29;38.65;;;27.52;;
62673;SDS011;62269;47.594;17.638;2023-12-07T04:18:27;44.40;;;28.73;;
62673;SDS011;62269;47.594;17.638;2023-12-07T04:19:24;40.10;;;26.45;;
62673;SDS011;62269;47.594;17.638;2023-12-07T04:20:22;35.50;;;24.77;;
62673;SDS011;62269;47.594;17.638;2023-12-07T04:21:19;39.97;;;26.95;;
62673;SDS011;62269;47.594;17.638;2023-12-07T04:22:17;37.65;;;25.15;;
62673;SDS011;62269;47.594;17.638;2023-12-07T04:23:14;35.17;;;24.23;;
62673;SDS011;62269;47.594;17.638;2023-12-07T04:24:12;34.22;;;24.30;;
62673;SDS011;62269;47.594;17.638;2023-12-07T04:25:09;34.80;;;24.20;;
62673;SDS011;62269;47.594;17.638;2023-12-07T04:26:07;38.10;;;24.33;;
62673;SDS011;62269;47.594;17.638;2023-12-07T04:27:05;34.58;;;24.60;;
62673;SDS011;62269;47.594;17.638;2023-12-07T04:28:03;35.85;;;23.87;;
62673;SDS011;62269;47.594;17.638;2023-12-07T04:29:00;31.98;;;23.27;;
62673;SDS011;62269;47.594;17.638;2023-12-07T04:29:58;35.95;;;24.45;;
62673;SDS011;62269;47.594;17.638;2023-12-07T04:30:57;34.20;;;23.95;;
62673;SDS011;62269;47.594;17.638;2023-12-07T04:31:55;30.27;;;22.15;;
62673;SDS011;62269;47.594;17.638;2023-12-07T04:32:53;32.33;;;22.60;;
62673;SDS011;62269;47.594;17.638;2023-12-07T04:33:51;33.33;;;21.77;;
62673;SDS011;62269;47.594;17.638;2023-12-07T04:34:48;31.77;;;22.27;;
62673;SDS011;62269;47.594;17.638;2023-12-07T04:35:46;33.20;;;21.33;;
62673;SDS011;62269;47.594;17.638;2023-12-07T04:36:44;26.73;;;19.80;;
62673;SDS011;62269;47.594;17.638;2023-12-07T04:37:41;31.83;;;21.35;;
62673;SDS011;62269;47.594;17.638;2023-12-07T04:38:39;30.65;;;21.02;;
62673;SDS011;62269;47.594;17.638;2023-12-07T04:39:36;28.77;;;20.60;;
62673;SDS011;62269;47.594;17.638;2023-12-07T04:40:34;29.35;;;20.48;;
62673;SDS011;62269;47.594;17.638;2023-12-07T04:41:32;29.35;;;21.00;;
62673;SDS011;62269;47.594;17.638;2023-12-07T04:42:29;31.55;;;21.48;;
62673;SDS011;62269;47.594;17.638;2023-12-07T04:43:27;33.33;;;22.20;;
62673;SDS011;62269;47.594;17.638;2023-12-07T04:44:24;28.02;;;21.48;;
62673;SDS011;62269;47.594;17.638;2023-12-07T04:45:23;30.62;;;19.45;;
62673;SDS011;62269;47.594;17.638;2023-12-07T04:46:23;28.42;;;19.52;;
62673;SDS011;62269;47.594;17.638;2023-12-07T04:47:21;24.80;;;18.15;;
62673;SDS011;62269;47.594;17.638;2023-12-07T04:48:20;26.70;;;19.70;;
62673;SDS011;62269;47.594;17.638;2023-12-07T04:49:19;26.00;;;19.40;;
62673;SDS011;62269;47.594;17.638;2023-12-07T04:50:16;24.20;;;17.98;;
62673;SDS011;62269;47.594;17.638;2023-12-07T04:51:14;26.92;;;20.17;;
62673;SDS011;62269;47.594;17.638;2023-12-07T04:52:12;23.33;;;17.77;;
62673;SDS011;62269;47.594;17.638;2023-12-07T04:53:10;23.10;;;18.60;;
62673;SDS011;62269;47.594;17.638;2023-12-07T04:54:08;24.25;;;18.75;;
62673;SDS011;62269;47.594;17.638;2023-12-07T04:55:15;26.25;;;19.08;;
62673;SDS011;62269;47.594;17.638;2023-12-07T04:56:12;23.73;;;18.50;;
62673;SDS011;62269;47.594;17.638;2023-12-07T04:57:10;25.42;;;18.60;;
62673;SDS011;62269;47.594;17.638;2023-12-07T04:58:07;23.80;;;17.98;;
62673;SDS011;62269;47.594;17.638;2023-12-07T04:59:05;24.23;;;18.33;;
62673;SDS011;62269;47.594;17.638;2023-12-07T05:00:03;22.87;;;16.98;;
62673;SDS011;62269;47.594;17.638;2023-12-07T05:01:06;22.35;;;16.55;;
62673;SDS011;62269;47.594;17.638;2023-12-07T05:02:03;23.60;;;16.77;;
62673;SDS011;62269;47.594;17.638;2023-12-07T05:03:01;21.35;;;17.42;;
62673;SDS011;62269;47.594;17.638;2023-12-07T05:03:59;23.48;;;17.42;;
62673;SDS011;62269;47.594;17.638;2023-12-07T05:04:57;24.17;;;17.55;;
62673;SDS011;62269;47.594;17.638;2023-12-07T05:05:55;22.37;;;16.87;;
62673;SDS011;62269;47.594;17.638;2023-12-07T05:06:52;23.75;;;17.75;;
62673;SDS011;62269;47.594;17.638;2023-12-07T05:07:50;22.15;;;16.48;;
62673;SDS011;62269;47.594;17.638;2023-12-07T05:08:47;21.65;;;16.85;;
62673;SDS011;62269;47.594;17.638;2023-12-07T05:09:44;23.15;;;16.92;;
62673;SDS011;62269;47.594;17.638;2023-12-07T05:10:43;22.60;;;17.20;;
62673;SDS011;62269;47.594;17.638;2023-12-07T05:11:40;21.73;;;16.70;;
62673;SDS011;62269;47.594;17.638;2023-12-07T05:12:38;22.77;;;16.50;;
62673;SDS011;62269;47.594;17.638;2023-12-07T05:13:36;18.73;;;15.10;;
62673;SDS011;62269;47.594;17.638;2023-12-07T05:14:34;22.05;;;16.48;;
62673;SDS011;62269;47.594;17.638;2023-12-07T05:15:34;22.80;;;16.92;;
62673;SDS011;62269;47.594;17.638;2023-12-07T05:16:32;22.30;;;16.92;;
62673;SDS011;62269;47.594;17.638;2023-12-07T05:17:29;23.33;;;15.88;;
62673;SDS011;62269;47.594;17.638;2023-12-07T05:18:27;20.88;;;16.00;;
62673;SDS011;62269;47.594;17.638;2023-12-07T05:19:25;21.15;;;16.70;;
62673;SDS011;62269;47.594;17.638;2023-12-07T05:20:23;22.67;;;17.02;;
62673;SDS011;62269;47.594;17.638;2023-12-07T05:21:22;23.92;;;17.80;;
62673;SDS011;62269;47.594;17.638;2023-12-07T05:22:19;20.33;;;16.33;;
62673;SDS011;62269;47.594;17.638;2023-12-07T05:23:19;21.80;;;15.93;;
62673;SDS011;62269;47.594;17.638;2023-12-07T05:24:16;20.62;;;15.77;;
62673;SDS011;62269;47.594;17.638;2023-12-07T05:25:14;19.50;;;15.55;;
62673;SDS011;62269;47.594;17.638;2023-12-07T05:26:11;19.12;;;15.43;;
62673;SDS011;62269;47.594;17.638;2023-12-07T05:27:09;22.00;;;16.50;;
62673;SDS011;62269;47.594;17.638;2023-12-07T05:28:06;22.00;;;16.85;;
62673;SDS011;62269;47.594;17.638;2023-12-07T05:29:04;18.17;;;15.45;;
62673;SDS011;62269;47.594;17.638;2023-12-07T05:30:02;24.05;;;16.48;;
62673;SDS011;62269;47.594;17.638;2023-12-07T05:31:00;19.70;;;15.68;;
62673;SDS011;62269;47.594;17.638;2023-12-07T05:31:58;20.65;;;15.70;;
62673;SDS011;62269;47.594;17.638;2023-12-07T05:32:56;18.98;;;14.15;;
62673;SDS011;62269;47.594;17.638;2023-12-07T05:33:53;20.30;;;15.93;;
62673;SDS011;62269;47.594;17.638;2023-12-07T05:34:52;19.15;;;14.73;;
62673;SDS011;62269;47.594;17.638;2023-12-07T05:35:49;19.70;;;16.02;;
62673;SDS011;62269;47.594;17.638;2023-12-07T05:36:47;21.12;;;15.80;;